Flight Track Log - Related Links

Times and Time Zones

All times are in EDT time to prevent confusion due to time zone crossing. See the RPA3275 flight status page for this flight to view local times or setup timezone preferences in your user account.

Time Position Orientation Groundspeed Altitude Reporting Facility
EDT Latitude Longitude Course Direction KTS MPH feet Rate Location/Type
Wed 09:17:15 AM 39.8745 -75.2671 81° East  Level FlightAware Approximate
Wed 09:18:15 AM 39.8826 -75.3652 90° East  Level FlightAware Approximate
Wed 09:19:04 AM 39.8825 -75.2006 67° East 143 165 1,700  Level FAA TRACON SMA TRACON (SMA)
Wed 09:19:44 AM 39.8953 -75.1617 65° Northeast 199 229 2,500 1,125 Climbing FAA TRACON SMA TRACON (SMA)
Wed 09:20:24 AM 39.9150 -75.1072 41° Northeast 270 311 3,200 1,875 Climbing FAA TRACON SMA TRACON (SMA)
Wed 09:21:04 AM 39.9533 -75.0636 336° Northwest 287 330 5,000 2,625 Climbing FAA TRACON SMA TRACON (SMA)
Wed 09:21:44 AM 39.9950 -75.0878 321° Northwest 273 314 6,700 2,775 Climbing FAA TRACON SMA TRACON (SMA)
Wed 09:22:24 AM 40.0361 -75.1314 271° West 269 310 8,700 2,475 Climbing FAA TRACON SMA TRACON (SMA)
Wed 09:23:04 AM 40.0369 -75.1950 252° West 267 307 10,000 975 Climbing FAA TRACON SMA TRACON (SMA)
Wed 09:23:44 AM 40.0211 -75.2581 252° West 265 305 10,000  Level FAA TRACON SMA TRACON (SMA)
Wed 09:24:24 AM 40.0072 -75.3150 252° West 268 308 10,000 152 Level FAA TRACON SMA TRACON (SMA)
Wed 09:25:03 AM 39.9911 -75.3792 252° West 271 312 10,200 1,050 Climbing FAA TRACON SMA TRACON (SMA)
Wed 09:25:44 AM 39.9750 -75.4436 252° West 274 315 11,400 1,630 Climbing FAA TRACON SMA TRACON (SMA)
Wed 09:26:24 AM 39.9600 -75.5036 271° West 284 327 12,400 1,725 Climbing FAA TRACON SMA TRACON (SMA)
Wed 09:27:04 AM 39.9608 -75.5808 277° West 313 360 13,700 2,025 Climbing FAA TRACON SMA TRACON (SMA)
Wed 09:27:44 AM 39.9678 -75.6575 276° West 311 358 15,100 2,175 Climbing FAA TRACON SMA TRACON (SMA)
Wed 09:28:24 AM 39.9736 -75.7342 277° West 312 359 16,600 1,950 Climbing FAA TRACON SMA TRACON (SMA)
Wed 09:29:04 AM 39.9800 -75.8053 276° West 316 364 17,700 1,050 Climbing FAA TRACON SMA TRACON (SMA)
Wed 09:29:44 AM 39.9822 -75.8322 276° West 318 366 18,000 1,595 Climbing FAA TRACON SMA TRACON (SMA)
Wed 09:31:57 AM 40.0061 -76.1367 278° West 338 389 22,300 1,896 Climbing New York Center
Wed 09:32:57 AM 40.0222 -76.2817 276° West 359 413 24,100 1,815 Climbing New York Center
Wed 09:33:56 AM 40.0328 -76.4100 275° West 364 419 25,900 1,550 Climbing New York Center
Wed 09:34:57 AM 40.0411 -76.5408 277° West 364 419 27,200 1,250 Climbing New York Center
Wed 09:35:56 AM 40.0533 -76.6747 275° West 374 430 28,400 1,210 Climbing New York Center
Wed 09:36:56 AM 40.0631 -76.8114 273° West 380 437 29,600 1,059 Climbing New York Center
Wed 09:37:55 AM 40.0683 -76.9500 272° West 385 443 30,500 1,150 Climbing New York Center
Wed 09:38:56 AM 40.0719 -77.0808 273° West 392 451 31,900 738 Climbing New York Center
Wed 09:39:57 AM 40.0772 -77.2142 274° West 387 445 32,000 50 Climbing New York Center
Wed 09:40:57 AM 40.0839 -77.3558 274° West 387 445 32,000  Level New York Center
Wed 09:41:55 AM 40.0906 -77.4978 273° West 387 445 32,000  Level New York Center
Wed 09:43:36 AM 40.1006 -77.7439 273° West 384 442 32,000  Level Cleveland Center
Wed 09:44:36 AM 40.1061 -77.8850 273° West 384 442 32,000  Level Cleveland Center
Wed 09:45:36 AM 40.1114 -78.0286 272° West 384 442 32,000  Level Cleveland Center
Wed 09:46:36 AM 40.1144 -78.1697 273° West 389 448 32,000  Level Cleveland Center
Wed 09:47:36 AM 40.1192 -78.2917 272° West 389 448 32,000  Level Cleveland Center
Wed 09:48:36 AM 40.1219 -78.4328 272° West 389 448 32,000  Level Cleveland Center
Wed 09:49:36 AM 40.1269 -78.5872 272° West 384 442 32,000 -350 Level Cleveland Center
Wed 09:50:36 AM 40.1314 -78.7283 273° West 384 442 31,300 -1,000 Descending Cleveland Center
Wed 09:51:36 AM 40.1378 -78.8722 271° West 384 442 30,000 -650 Descending Cleveland Center
Wed 09:52:36 AM 40.1397 -79.0161 274° West 390 449 30,000  Level Cleveland Center
Wed 09:53:36 AM 40.1481 -79.1625 284° West 395 455 30,000  Level Cleveland Center
Wed 09:54:36 AM 40.1747 -79.3006 285° West 395 455 30,000  Level Cleveland Center
Wed 09:55:36 AM 40.2031 -79.4386 285° West 400 460 30,000  Level Cleveland Center
Wed 09:56:36 AM 40.2317 -79.5742 286° West 400 460 30,000  Level Cleveland Center
Wed 09:57:36 AM 40.2619 -79.7125 285° West 394 453 30,000  Level Cleveland Center
Wed 09:58:36 AM 40.2900 -79.8536 285° West 394 453 30,000  Level Cleveland Center
Wed 09:59:36 AM 40.3178 -79.9922 294° West 394 453 30,000  Level Cleveland Center
Wed 10:00:36 AM 40.3581 -80.1117 303° West 394 453 30,000  Level Cleveland Center
Wed 10:01:36 AM 40.4189 -80.2367 306° West 401 461 30,000  Level Cleveland Center
Wed 10:02:36 AM 40.4839 -80.3564 303° West 416 479 30,000  Level Cleveland Center
Wed 10:03:36 AM 40.5444 -80.4792 302° West 410 472 30,000  Level Cleveland Center
Wed 10:04:36 AM 40.6050 -80.6078 304° West 410 472 30,000  Level Cleveland Center
Wed 10:05:36 AM 40.6675 -80.7308 303° West 410 472 30,000  Level Cleveland Center
Wed 10:06:36 AM 40.7297 -80.8572 304° West 410 472 30,000 -350 Level Cleveland Center
Wed 10:07:36 AM 40.7919 -80.9808 302° West 410 472 29,300 -900 Descending Cleveland Center
Wed 10:08:36 AM 40.8558 -81.1183 303° West 410 472 28,200 -1,050 Descending Cleveland Center
Wed 10:09:36 AM 40.9158 -81.2425 304° West 405 466 27,200 -1,050 Descending Cleveland Center
Wed 10:10:36 AM 40.9756 -81.3614 302° West 405 466 26,100 -1,050 Descending Cleveland Center
Wed 10:11:36 AM 41.0331 -81.4833 302° West 398 458 25,100 -1,000 Descending Cleveland Center
Wed 10:12:36 AM 41.0883 -81.5997 303° West 392 451 24,100 -550 Descending Cleveland Center
Wed 10:13:36 AM 41.1394 -81.7053 304° West 387 445 24,000 -50 Descending Cleveland Center
Wed 10:14:36 AM 41.1967 -81.8194 302° West 387 445 24,000  Level Cleveland Center
Wed 10:15:36 AM 41.2514 -81.9364 301° West 382 440 24,000  Level Cleveland Center
Wed 10:16:36 AM 41.3064 -82.0564 303° West 382 440 24,000 -600 Level Cleveland Center
Wed 10:17:36 AM 41.3692 -82.1853 309° West 382 440 22,800 -1,600 Descending Cleveland Center
Wed 10:18:36 AM 41.4322 -82.2892 310° West 370 426 20,800 -1,950 Descending Cleveland Center
Wed 10:19:36 AM 41.4933 -82.3878 308° West 353 406 18,900 -1,750 Descending Cleveland Center
Wed 10:20:36 AM 41.5503 -82.4864 308° West 341 392 17,300 -1,650 Descending Cleveland Center
Wed 10:21:36 AM 41.6028 -82.5769 309° West 321 369 15,600 -1,600 Descending Cleveland Center
Wed 10:22:36 AM 41.6514 -82.6564 309° West 309 356 14,100 -1,550 Descending Cleveland Center
Wed 10:23:36 AM 41.7019 -82.7386 312° West 301 346 12,500 -1,100 Descending Cleveland Center
Wed 10:24:36 AM 41.7528 -82.8153 319° Northwest 288 331 11,900 -261 Descending Cleveland Center
Wed 10:25:31 AM 41.8117 -82.8844 318° Northwest 275 316 12,000  Climbing Cleveland Center
Wed 10:26:36 AM 41.8667 -82.9506 311° West 270 311 11,900  Descending Cleveland Center
Wed 10:27:27 AM 41.9153 -83.0247 310° West 273 314 12,000 54 Climbing Cleveland Center
Wed 10:28:27 AM 41.9636 -83.1019 309° West 274 315 12,000 -52 Level Cleveland Center
Wed 10:29:23 AM 42.0097 -83.1794 308° West 274 315 11,900  Descending Cleveland Center
Wed 10:30:29 AM 42.0619 -83.2681 309° West 271 312 12,000 45 Climbing Cleveland Center
Wed 10:31:36 AM 42.1161 -83.3572 311° West 275 316 12,000  Level Cleveland Center
Wed 10:32:36 AM 42.1603 -83.4264 328° Northwest 280 322 12,000 -259 Level Cleveland Center
Wed 10:33:32 AM 42.2175 -83.4739 353° North 240 276 11,500 -1,026 Descending Cleveland Center
Wed 10:34:33 AM 42.2819 -83.4853 29° Northeast 269 310 10,000 -1,721 Descending Cleveland Center
Wed 10:35:34 AM 42.3519 -83.4322 25° Northeast 278 320 8,000 -2,109 Descending Cleveland Center
Wed 10:36:41 AM 42.4239 -83.3878 29° Northeast 253 291 5,500 -1,875 Descending Cleveland Center
Wed 10:37:42 AM 42.4875 -83.3397 26° Northeast 244 281 4,000 -738 Descending Cleveland Center
Wed 10:38:43 AM 42.5428 -83.3028 90° East 226 260 4,000  Level Cleveland Center
Wed 10:39:44 AM 42.5425 -83.2211 161° South 226 260 4,000  Level Cleveland Center
Wed 10:40:45 AM 42.4972 -83.1994 161° South 168 193 4,000  Level Cleveland Center

Login

Don't have an account? Register now (free) for customized features, flight alerts, and more!